createdAt,value
2023-01-04T00:08:16.270Z,101560.09
2023-01-04T00:18:19.357Z,101538.72
2023-01-04T00:28:23.595Z,101529.28
2023-01-04T00:38:26.868Z,101517.28
2023-01-04T00:48:31.361Z,101507.88
2023-01-04T00:58:34.683Z,101479.59
2023-01-04T01:08:39.029Z,101465.03
2023-01-04T01:18:44.400Z,101465.88
2023-01-04T01:28:50.105Z,101444.47
2023-01-04T01:38:54.050Z,101435.19
2023-01-04T01:49:04.496Z,101424.06
2023-01-04T01:59:09.797Z,101400.91
2023-01-04T02:09:15.199Z,101396.59
2023-01-04T02:19:44.268Z,101396.56
2023-01-04T02:30:28.320Z,101367.41
2023-01-04T02:40:43.344Z,101360.44
2023-01-04T02:50:53.790Z,101335.59
2023-01-04T03:01:26.481Z,101302.19
2023-01-04T03:11:54.153Z,101295.34
2023-01-04T03:21:58.877Z,101290.19
2023-01-04T03:32:25.377Z,101279.88
2023-01-04T03:42:55.744Z,101281.63
2023-01-04T03:53:00.356Z,101251.72
2023-01-04T04:03:08.339Z,101230.22
2023-01-04T04:13:11.236Z,101233.56
2023-01-04T04:23:15.515Z,101231.94
2023-01-04T04:33:18.782Z,101198.81
2023-01-04T04:43:23.152Z,101212.50
2023-01-04T04:53:26.652Z,101205.59
2023-01-04T05:03:31.014Z,101192.66
2023-01-04T05:13:34.322Z,101199.47
2023-01-04T05:23:38.779Z,101207.06
2023-01-04T05:33:42.020Z,101178.81
2023-01-04T05:43:46.563Z,101151.38
2023-01-04T05:53:49.451Z,101135.06
2023-01-04T06:03:53.800Z,101149.56
2023-01-04T06:13:56.702Z,101139.31
2023-01-04T06:24:01.299Z,101124.66
2023-01-04T06:34:04.609Z,101115.25
2023-01-04T06:44:09.514Z,101090.34
2023-01-04T06:54:12.910Z,101096.28
2023-01-04T07:04:18.175Z,101085.97
2023-01-04T07:14:22.245Z,101093.63
2023-01-04T07:24:30.338Z,101100.44
2023-01-04T07:34:35.564Z,101086.66
2023-01-04T07:44:39.940Z,101089.19
2023-01-04T07:54:43.337Z,101082.22
2023-01-04T08:04:48.516Z,101086.41
2023-01-04T08:14:51.641Z,101070.00
2023-01-04T08:24:56.135Z,101088.03
2023-01-04T08:34:59.133Z,101087.13
2023-01-04T08:45:03.621Z,101084.47
2023-01-04T08:55:12.582Z,101094.53
2023-01-04T09:05:22.245Z,101095.22
2023-01-04T09:15:26.233Z,101061.53
2023-01-04T09:25:30.747Z,101064.69
2023-01-04T09:35:34.159Z,101084.09
2023-01-04T09:45:38.785Z,101088.03
2023-01-04T09:55:48.223Z,101065.31
2023-01-04T10:06:15.762Z,101060.72
2023-01-04T10:17:10.423Z,101068.34
2023-01-04T10:27:02.038Z,101057.13
2023-01-04T10:37:14.139Z,101043.13
2023-01-04T10:47:27.806Z,101029.38
2023-01-04T10:57:38.086Z,101009.72
2023-01-04T11:07:48.996Z,101000.06
2023-01-04T11:17:53.337Z,100975.25
2023-01-04T11:28:03.448Z,100970.16
2023-01-04T11:38:15.506Z,100957.53
2023-01-04T11:48:20.027Z,100940.91
2023-01-04T11:58:28.111Z,100926.22
2023-01-04T12:08:34.972Z,100917.44
2023-01-04T12:18:41.960Z,100916.22
2023-01-04T12:28:48.272Z,100898.84
2023-01-04T12:39:21.126Z,100892.81
2023-01-04T12:49:53.133Z,100882.69
2023-01-04T12:59:58.400Z,100872.38
2023-01-04T13:10:19.342Z,100865.94
2023-01-04T13:20:25.834Z,100851.09
2023-01-04T13:30:33.177Z,100864.53
2023-01-04T13:40:37.622Z,100854.16
2023-01-04T13:50:47.287Z,100839.13
2023-01-04T14:00:55.980Z,100846.03
2023-01-04T14:11:01.327Z,100834.78
2023-01-04T14:21:04.537Z,100833.59
2023-01-04T14:31:21.021Z,100833.81
2023-01-04T14:41:27.128Z,100822.47
2023-01-04T14:51:35.455Z,100819.78
2023-01-04T15:01:38.537Z,100827.16
2023-01-04T15:11:43.080Z,100815.38
2023-01-04T15:21:46.219Z,100817.84
2023-01-04T15:31:50.455Z,100814.41
2023-01-04T15:42:11.090Z,100801.81
2023-01-04T15:52:15.676Z,100799.94
2023-01-04T16:02:18.996Z,100797.22
2023-01-04T16:12:40.949Z,100815.06
2023-01-04T16:22:44.367Z,100812.47
2023-01-04T16:32:48.895Z,100805.34
2023-01-04T16:42:52.856Z,100793.63
2023-01-04T16:52:57.421Z,100792.94
2023-01-04T17:03:00.541Z,100781.66
2023-01-04T17:13:06.633Z,100771.59
2023-01-04T17:23:09.964Z,100769.88
2023-01-04T17:33:14.750Z,100821.19
2023-01-04T17:43:18.070Z,100834.97
2023-01-04T17:53:22.684Z,100837.84
2023-01-04T18:03:26.378Z,100813.66
2023-01-04T18:13:30.730Z,100827.78
2023-01-04T18:23:33.869Z,100845.94
2023-01-04T18:33:38.586Z,100843.34
2023-01-04T18:43:53.543Z,100838.81
2023-01-04T18:54:06.592Z,100849.25
2023-01-04T19:04:29.011Z,100858.84
2023-01-04T19:14:33.355Z,100877.66
2023-01-04T19:24:36.943Z,100862.13
2023-01-04T19:34:42.256Z,100838.38
2023-01-04T19:44:45.247Z,100872.94
2023-01-04T19:54:49.572Z,100859.81
2023-01-04T20:04:53.218Z,100881.41
2023-01-04T20:14:57.976Z,100878.94
2023-01-04T20:25:00.717Z,100878.91
2023-01-04T20:35:05.731Z,100870.38
2023-01-04T20:45:09.843Z,100894.03
2023-01-04T20:55:17.542Z,100888.69
2023-01-04T21:05:20.940Z,100901.50
2023-01-04T21:15:25.892Z,100897.41
2023-01-04T21:25:29.132Z,100888.78
2023-01-04T21:35:34.286Z,100882.72
2023-01-04T21:45:39.933Z,100888.53
2023-01-04T21:55:44.198Z,100894.06
2023-01-04T22:05:47.308Z,100884.50
2023-01-04T22:15:51.941Z,100883.91
2023-01-04T22:25:57.259Z,100893.28
2023-01-04T22:36:05.414Z,100893.53
2023-01-04T22:46:13.127Z,100908.16
2023-01-04T22:56:21.953Z,100907.50
2023-01-04T23:06:27.222Z,100929.81
2023-01-04T23:16:33.175Z,100955.41
2023-01-04T23:26:36.537Z,100942.00
2023-01-04T23:36:42.993Z,100955.19
2023-01-04T23:46:46.398Z,100953.44
2023-01-04T23:56:50.869Z,100944.94
